Flight Information

DEPARTURE
SACRAMENTO, CA
Elevation:
26
Runways:
17R/35L - 8598x150 - CONC-G
17L/35R - 8605x150 - CONC-G
Active PE Departure:
35L - 35R
Current PE ATIS:
G
Altimeter:
29.77
Remarks:
V F R DEPARTURES CONTACT CLEARANCE DELIVERY, ADVISE ON COURSE HEADING, ALTITUDE, AND IF FLIGHT FOLLOWING IS REQUESTED.
ATIS:
126.75 916-874-0679
Clearance Delivery:
121.1
Ground:
121.7
Tower:
CAPITOL TOWER 125.7
DESTINATION
,
Elevation:
TPA:
1000 (est.)


6847.7 NM69° True-16° Var53° HDG

Flight Plan:
(click to file on line)

1. Type
2. Aircraft Identification
3. Aircraft Type / Special Equipment
4. True Airspeed
kts
5. Departure Airport
(ICAO code)
6. Arriving Airport
(ICAO code)
7. Cruising Altitude
ft
8. Alternate Airport
(ICAO code)
9. Route of Flight
10. Remarks


00:00:00 Departure ATIS: Destination ATIS:

Clearance Limit:
Route:
Altitude: Expect in minutes
Frequency:
Transponder: (7500 Hijack / 7600 Lost Comms / 7700 Emergency)


KSMF 252053Z 35012KT 10SM SCT150 SCT250 12/M03 A2977 RMK AO2 SLP081 T01171028 58013
Time: 2021-01-25T20:53:00Z
1611608630
Winds: 350 @ 12 kts
Visibility: 10.0 sm
Clouds (AGL): SCT 15000
SCT 25000
Temperature: 11.7 C
Dew Point: -2.8 C
Pressure: 29.769686 in Hgbr


Notes:

Data extracted from FAA Digital Chart Supplement. Effective: 0901Z Thursday, Dec 31, 2020 to 0901Z Thursday, Jan 28, 2021
Current ATIS data is provided courtisy of PilotEdge.